首页
METAR-TAF:

METAR-TAF

机场 :

西沃萨古尔·拉姆古兰爵士国际机场

毛里求斯, 毛里求斯

纬度: 20-26S, 经度: 057-40E, 海拔: 55米

当前天气观测

该预报发布于23分钟前的01:00 UTC
风速12节,风向
温度 22°C
湿度 69%
气压 1019 hPa
能见度10公里或以上
散云层高于1700英尺
多云层高于25000英尺

METAR: FIMP 240100Z 18012KT 9999 SCT017 BKN250 22/16 Q1019

时间: 05:23 (01:23 UTC)

预报

该预报发布于1小时和53分钟前的23:30 UTC
预报有效从24日的 00点(UTC)到 25日的 06点(UTC)
风速10节,风向西南
能见度10公里或以上
少量云层高于1800英尺
成为
从 24日的 02点(UTC)到 24日的 04点(UTC)
风速10节,风向,有时为20节阵风

TAF: FIMP 232330Z 2400/2506 22010KT 9999 FEW018 BECMG 2402/2404 17010G20KT

超过4000个机场的气象观测和天气预报(METAR&TAF报告)。

可查询的气象台以黄色和红色小点在地图上表示。

将鼠标移到小点上方,可查看气象台名称。

然后点击查看天气观测和预报。

如需切换地图:点击带黑十字的绿色按钮放大地图;点击带横线的绿色按钮缩小地图;或者点击绿色箭头查看邻近地区的地图。


METAR-TAF: